createdAt,value
2023-04-16T00:02:20.863Z,36.28
2023-04-16T00:04:55.663Z,37.08
2023-04-16T00:09:54.582Z,35.88
2023-04-16T00:12:25.274Z,38.10
2023-04-16T00:14:55.580Z,36.40
2023-04-16T00:17:25.253Z,34.80
2023-04-16T00:19:54.989Z,32.42
2023-04-16T00:22:24.895Z,32.47
2023-04-16T00:24:55.251Z,32.13
2023-04-16T00:27:24.910Z,33.60
2023-04-16T00:29:54.509Z,31.20
2023-04-16T00:32:24.211Z,31.02
2023-04-16T00:34:53.878Z,33.53
2023-04-16T00:37:23.524Z,32.75
2023-04-16T00:39:53.192Z,30.75
2023-04-16T00:42:23.470Z,31.23
2023-04-16T00:44:53.241Z,31.02
2023-04-16T00:47:29.703Z,33.58
2023-04-16T00:49:59.316Z,31.75
2023-04-16T00:52:32.854Z,30.58
2023-04-16T00:55:05.524Z,30.05
2023-04-16T00:57:35.166Z,30.70
2023-04-16T01:00:05.290Z,31.00
2023-04-16T01:02:36.849Z,30.35
2023-04-16T01:05:07.747Z,29.60
2023-04-16T01:07:40.048Z,30.55
2023-04-16T01:10:10.503Z,30.90
2023-04-16T01:12:40.216Z,28.60
2023-04-16T01:15:10.587Z,27.25
2023-04-16T01:17:40.459Z,28.05
2023-04-16T01:20:16.019Z,28.33
2023-04-16T01:22:45.712Z,25.40
2023-04-16T01:25:18.544Z,26.35
2023-04-16T01:27:51.214Z,26.88
2023-04-16T01:30:20.976Z,25.23
2023-04-16T01:32:50.779Z,26.52
2023-04-16T01:35:21.013Z,24.63
2023-04-16T01:37:55.471Z,25.20
2023-04-16T01:40:30.975Z,25.88
2023-04-16T01:43:03.265Z,25.25
2023-04-16T01:45:39.757Z,23.20
2023-04-16T01:48:15.791Z,23.35
2023-04-16T01:50:45.500Z,24.13
2023-04-16T01:53:15.193Z,25.08
2023-04-16T01:55:44.971Z,22.92
2023-04-16T01:58:16.380Z,23.63
2023-04-16T02:00:46.163Z,23.27
2023-04-16T02:03:20.208Z,25.20
2023-04-16T02:05:49.938Z,23.70
2023-04-16T02:08:20.356Z,23.17
2023-04-16T02:10:53.709Z,24.73
2023-04-16T02:13:27.684Z,24.45
2023-04-16T02:15:57.771Z,23.27
2023-04-16T02:18:27.802Z,22.08
2023-04-16T02:20:57.518Z,22.48
2023-04-16T02:23:27.377Z,22.88
2023-04-16T02:25:57.156Z,22.95
2023-04-16T02:28:26.837Z,22.05
2023-04-16T02:30:56.426Z,22.90
2023-04-16T02:33:31.304Z,20.95
2023-04-16T02:36:01.676Z,20.85
2023-04-16T02:38:31.482Z,21.35
2023-04-16T02:41:04.144Z,22.35
2023-04-16T02:43:33.756Z,21.55
2023-04-16T02:46:06.294Z,22.48
2023-04-16T02:48:36.058Z,21.77
2023-04-16T02:51:05.815Z,23.40
2023-04-16T02:53:38.298Z,22.00
2023-04-16T02:56:08.389Z,18.35
2023-04-16T02:58:37.978Z,18.95
2023-04-16T03:01:07.731Z,20.13
2023-04-16T03:03:37.701Z,20.70
2023-04-16T03:06:08.321Z,19.90
2023-04-16T03:08:38.705Z,21.17
2023-04-16T03:11:09.108Z,20.65
2023-04-16T03:13:38.668Z,20.33
2023-04-16T03:16:11.753Z,22.80
2023-04-16T03:18:41.466Z,21.77
2023-04-16T03:21:11.406Z,23.00
2023-04-16T03:23:41.573Z,25.50
2023-04-16T03:26:14.275Z,27.27
2023-04-16T03:28:45.230Z,28.00
2023-04-16T03:31:14.906Z,26.98
2023-04-16T03:33:48.028Z,30.02
2023-04-16T03:36:20.662Z,28.58
2023-04-16T03:38:53.724Z,28.52
2023-04-16T03:41:26.349Z,29.77
2023-04-16T03:43:56.261Z,31.80
2023-04-16T03:46:26.064Z,29.35
2023-04-16T03:48:55.723Z,28.67
2023-04-16T03:51:25.400Z,28.38
2023-04-16T03:53:57.659Z,28.73
2023-04-16T03:56:30.595Z,30.67
2023-04-16T03:59:03.674Z,29.85
2023-04-16T04:01:36.256Z,27.73
2023-04-16T04:04:06.191Z,29.08
2023-04-16T04:06:35.884Z,31.05
2023-04-16T04:09:07.759Z,31.27
2023-04-16T04:11:37.720Z,30.05
2023-04-16T04:14:13.121Z,30.70
2023-04-16T04:16:45.811Z,32.65
2023-04-16T04:19:18.066Z,34.78
2023-04-16T04:21:47.659Z,35.25
2023-04-16T04:24:17.290Z,36.15
2023-04-16T04:26:46.964Z,35.33
2023-04-16T04:29:22.292Z,35.50
2023-04-16T04:31:55.087Z,37.53
2023-04-16T04:34:27.496Z,35.75
2023-04-16T04:37:00.047Z,33.53
2023-04-16T04:39:29.742Z,34.88
2023-04-16T04:42:00.566Z,34.17
2023-04-16T04:44:33.068Z,31.70
2023-04-16T04:47:02.764Z,33.90
2023-04-16T04:49:35.847Z,33.30
2023-04-16T04:52:06.534Z,30.92
2023-04-16T04:54:36.198Z,33.63
2023-04-16T04:57:05.820Z,30.80
2023-04-16T04:59:35.470Z,31.05
2023-04-16T05:02:05.251Z,31.42
2023-04-16T05:04:34.897Z,32.03
2023-04-16T05:07:11.427Z,29.50
2023-04-16T05:09:41.083Z,27.83
2023-04-16T05:12:10.732Z,29.20
2023-04-16T05:14:40.329Z,31.83
2023-04-16T05:17:10.007Z,30.83
2023-04-16T05:19:46.407Z,31.58
2023-04-16T05:22:16.089Z,29.52
2023-04-16T05:24:46.067Z,32.10
2023-04-16T05:27:15.779Z,34.13
2023-04-16T05:29:45.425Z,30.95
2023-04-16T05:32:15.189Z,31.10
2023-04-16T05:34:48.551Z,32.42
2023-04-16T05:37:18.137Z,32.58
2023-04-16T05:39:47.850Z,28.90
2023-04-16T05:42:17.827Z,28.50
2023-04-16T05:44:52.955Z,26.70
2023-04-16T05:47:22.973Z,28.08
2023-04-16T05:49:52.709Z,23.90
2023-04-16T05:52:24.991Z,24.88
2023-04-16T05:54:57.496Z,24.08
2023-04-16T05:57:34.931Z,26.08
2023-04-16T06:00:07.750Z,24.33
2023-04-16T06:02:38.117Z,23.85
2023-04-16T06:05:11.023Z,23.88
2023-04-16T06:07:42.671Z,23.10
2023-04-16T06:10:15.512Z,22.83
2023-04-16T06:12:48.411Z,22.40
2023-04-16T06:15:21.047Z,24.20
2023-04-16T06:17:52.657Z,21.02
2023-04-16T06:20:22.886Z,20.25
2023-04-16T06:22:55.453Z,21.42
2023-04-16T06:25:25.267Z,21.92
2023-04-16T06:27:56.738Z,19.80
2023-04-16T06:30:27.186Z,18.95
2023-04-16T06:32:57.140Z,18.92
2023-04-16T06:35:27.527Z,20.80
2023-04-16T06:37:57.232Z,19.77
2023-04-16T06:40:31.641Z,19.55
2023-04-16T06:43:02.641Z,20.17
2023-04-16T06:45:32.285Z,20.08
2023-04-16T06:48:03.019Z,15.80
2023-04-16T06:50:33.290Z,17.48
2023-04-16T06:53:10.518Z,15.88
2023-04-16T06:55:40.232Z,11.93
2023-04-16T06:58:14.732Z,11.10
2023-04-16T07:00:44.399Z,10.80
2023-04-16T07:03:16.810Z,10.40
2023-04-16T07:05:49.234Z,11.25
2023-04-16T07:08:18.835Z,10.18
2023-04-16T07:10:48.477Z,9.48
2023-04-16T07:13:20.085Z,9.43
2023-04-16T07:15:50.320Z,8.38
2023-04-16T07:18:20.812Z,7.93
2023-04-16T07:20:52.858Z,7.20
2023-04-16T07:23:25.484Z,7.93
2023-04-16T07:25:55.191Z,7.35
2023-04-16T07:28:26.830Z,6.50
2023-04-16T07:30:56.478Z,8.75
2023-04-16T07:33:26.878Z,7.32
2023-04-16T07:35:57.086Z,8.93
2023-04-16T07:38:27.326Z,8.27
2023-04-16T07:40:58.384Z,7.90
2023-04-16T07:43:28.225Z,7.45
2023-04-16T07:45:58.082Z,8.02
2023-04-16T07:48:28.777Z,8.23
2023-04-16T07:50:58.481Z,8.70
2023-04-16T07:53:28.190Z,6.93
2023-04-16T07:56:00.652Z,7.15
2023-04-16T07:58:39.882Z,6.90
2023-04-16T08:01:09.574Z,7.25
2023-04-16T08:03:39.483Z,8.32
2023-04-16T08:06:09.534Z,6.95
2023-04-16T08:08:39.701Z,7.50
2023-04-16T08:11:12.323Z,8.68
2023-04-16T08:13:44.886Z,6.43
2023-04-16T08:16:14.596Z,7.40
2023-04-16T08:18:44.727Z,7.15
2023-04-16T08:21:14.463Z,7.80
2023-04-16T08:23:44.052Z,7.85
2023-04-16T08:26:13.717Z,7.90
2023-04-16T08:28:43.368Z,7.55
2023-04-16T08:31:13.668Z,7.82
2023-04-16T08:33:43.573Z,7.07
2023-04-16T08:36:19.445Z,8.77
2023-04-16T08:38:56.448Z,7.55
2023-04-16T08:41:29.699Z,7.88
2023-04-16T08:44:04.597Z,5.97
2023-04-16T08:46:34.420Z,7.93
2023-04-16T08:49:05.914Z,6.40
2023-04-16T08:51:44.635Z,7.63
2023-04-16T08:54:16.911Z,7.43
2023-04-16T08:56:50.680Z,7.22
2023-04-16T08:59:20.487Z,7.40
2023-04-16T09:01:55.960Z,7.43
2023-04-16T09:04:29.222Z,8.07
2023-04-16T09:06:59.369Z,7.85
2023-04-16T09:09:34.546Z,8.82
2023-04-16T09:12:04.437Z,8.13
2023-04-16T09:14:34.199Z,8.55
2023-04-16T09:17:06.465Z,7.28
2023-04-16T09:19:36.438Z,8.40
2023-04-16T09:22:06.568Z,9.30
2023-04-16T09:24:37.111Z,7.55
2023-04-16T09:27:07.579Z,7.38
2023-04-16T09:29:43.582Z,6.85
2023-04-16T09:32:14.520Z,6.68
2023-04-16T09:35:09.230Z,6.65
2023-04-16T09:37:39.498Z,7.28
2023-04-16T09:40:09.808Z,6.20
2023-04-16T09:42:43.037Z,6.40
2023-04-16T09:45:13.198Z,6.55
2023-04-16T09:47:44.964Z,6.63
2023-04-16T09:50:20.905Z,7.18
2023-04-16T09:52:53.639Z,6.78
2023-04-16T09:55:29.287Z,6.65
2023-04-16T09:58:03.039Z,5.97
2023-04-16T10:00:42.342Z,7.37
2023-04-16T10:03:16.082Z,6.45
2023-04-16T10:05:45.784Z,6.10
2023-04-16T10:08:17.790Z,6.75
2023-04-16T10:10:48.012Z,5.70
2023-04-16T10:13:23.486Z,5.63
2023-04-16T10:15:53.351Z,5.75
2023-04-16T10:18:23.821Z,5.97
2023-04-16T10:20:54.148Z,5.95
2023-04-16T10:23:26.633Z,5.20
2023-04-16T10:25:57.772Z,5.93
2023-04-16T10:28:27.560Z,6.35
2023-04-16T10:30:59.641Z,6.32
2023-04-16T10:33:43.044Z,5.00
2023-04-16T10:36:19.349Z,6.07
2023-04-16T10:38:51.682Z,5.40
2023-04-16T10:41:24.318Z,5.85
2023-04-16T10:43:54.206Z,6.05
2023-04-16T10:46:29.358Z,5.50
2023-04-16T10:49:02.909Z,5.85
2023-04-16T10:51:37.805Z,5.85
2023-04-16T10:54:16.916Z,5.50
2023-04-16T10:56:53.923Z,5.25
2023-04-16T10:59:33.011Z,5.20
2023-04-16T11:02:08.907Z,5.03
2023-04-16T11:04:49.204Z,6.68
2023-04-16T11:07:35.664Z,6.05
2023-04-16T11:10:10.031Z,6.00
2023-04-16T11:12:55.400Z,6.05
2023-04-16T11:15:26.346Z,5.47
2023-04-16T11:17:56.290Z,5.35
2023-04-16T11:20:28.247Z,5.95
2023-04-16T11:22:59.981Z,6.93
2023-04-16T11:25:31.948Z,5.85
2023-04-16T11:28:08.228Z,7.78
2023-04-16T11:30:44.195Z,6.10
2023-04-16T11:33:17.470Z,5.90
2023-04-16T11:35:47.585Z,5.88
2023-04-16T11:38:17.332Z,7.88
2023-04-16T11:40:47.175Z,5.07
2023-04-16T11:43:18.547Z,6.03
2023-04-16T11:46:12.821Z,6.13
2023-04-16T11:48:53.954Z,7.60
2023-04-16T11:51:24.803Z,7.28
2023-04-16T11:53:57.779Z,7.82
2023-04-16T11:56:32.461Z,6.72
2023-04-16T12:02:04.713Z,7.93
2023-04-16T12:04:36.235Z,7.50
2023-04-16T12:07:16.067Z,7.78
2023-04-16T12:09:46.849Z,8.18
2023-04-16T12:12:32.787Z,6.85
2023-04-16T12:15:07.447Z,8.82
2023-04-16T12:17:38.777Z,8.82
2023-04-16T12:20:13.070Z,8.25
2023-04-16T12:22:49.890Z,9.55
2023-04-16T12:25:24.595Z,9.65
2023-04-16T12:27:57.464Z,7.45
2023-04-16T12:30:28.403Z,9.13
2023-04-16T12:33:19.288Z,7.47
2023-04-16T12:35:52.617Z,8.60
2023-04-16T12:38:24.531Z,8.20
2023-04-16T12:41:01.078Z,10.50
2023-04-16T12:43:30.814Z,8.57
2023-04-16T12:46:03.528Z,8.50
2023-04-16T12:48:34.240Z,8.60
2023-04-16T12:51:04.143Z,8.73
2023-04-16T12:53:33.760Z,8.98
2023-04-16T12:56:08.266Z,9.38
2023-04-16T12:58:37.978Z,9.05
2023-04-16T13:01:07.823Z,8.25
2023-04-16T13:03:38.910Z,9.30
2023-04-16T13:06:09.538Z,8.68
2023-04-16T13:08:39.455Z,8.23
2023-04-16T13:11:12.388Z,8.68
2023-04-16T13:13:42.479Z,9.25
2023-04-16T13:16:13.024Z,8.60
2023-04-16T13:18:43.196Z,9.55
2023-04-16T13:21:13.930Z,8.13
2023-04-16T13:23:43.563Z,9.32
2023-04-16T13:26:14.770Z,8.90
2023-04-16T13:28:44.409Z,8.52
2023-04-16T13:31:14.140Z,11.50
2023-04-16T13:33:47.010Z,8.13
2023-04-16T13:36:19.799Z,7.53
2023-04-16T13:38:53.008Z,9.02
2023-04-16T13:41:25.592Z,8.70
2023-04-16T13:43:55.836Z,11.30
2023-04-16T13:46:26.300Z,10.43
2023-04-16T13:48:56.072Z,10.50
2023-04-16T13:51:25.941Z,9.55
2023-04-16T13:53:59.916Z,9.73
2023-04-16T13:56:29.621Z,9.38
2023-04-16T13:59:03.925Z,11.15
2023-04-16T14:01:33.543Z,9.70
2023-04-16T14:04:08.099Z,12.45
2023-04-16T14:06:41.022Z,10.73
2023-04-16T14:09:13.076Z,11.52
2023-04-16T14:11:43.027Z,12.35
2023-04-16T14:14:12.727Z,11.05
2023-04-16T14:16:43.129Z,12.38
2023-04-16T14:19:13.679Z,14.00
2023-04-16T14:21:43.305Z,12.15
2023-04-16T14:24:13.025Z,11.20
2023-04-16T14:26:54.892Z,12.05
2023-04-16T14:29:24.527Z,12.30
2023-04-16T14:31:54.193Z,11.73
2023-04-16T14:34:26.806Z,12.05
2023-04-16T14:36:56.497Z,13.27
2023-04-16T14:39:26.957Z,12.30
2023-04-16T14:42:00.520Z,12.70
2023-04-16T14:44:33.109Z,11.45
2023-04-16T14:47:02.762Z,12.32
2023-04-16T14:49:32.482Z,13.15
2023-04-16T14:52:07.592Z,12.02
2023-04-16T14:54:42.375Z,14.35
2023-04-16T14:59:44.285Z,12.80
2023-04-16T15:02:17.068Z,15.25
2023-04-16T15:04:46.992Z,14.35
2023-04-16T15:07:16.685Z,12.32
2023-04-16T15:09:55.540Z,12.38
2023-04-16T15:12:28.385Z,12.05
2023-04-16T15:14:58.118Z,11.95
2023-04-16T15:17:28.244Z,11.45
2023-04-16T15:20:00.940Z,12.15
2023-04-16T15:22:30.702Z,13.07
2023-04-16T15:25:00.328Z,12.73
2023-04-16T15:27:30.262Z,13.25
2023-04-16T15:30:00.519Z,13.40
2023-04-16T15:32:31.134Z,11.32
2023-04-16T15:35:04.372Z,11.68
2023-04-16T15:37:36.909Z,13.35
2023-04-16T15:40:10.494Z,12.63
2023-04-16T15:42:40.798Z,14.80
2023-04-16T15:45:10.668Z,12.93
2023-04-16T15:47:41.833Z,12.05
2023-04-16T15:50:12.465Z,11.70
2023-04-16T15:52:47.368Z,12.60
2023-04-16T15:55:17.821Z,11.55
2023-04-16T15:57:50.399Z,11.73
2023-04-16T16:00:20.619Z,11.80
2023-04-16T16:02:53.447Z,12.68
2023-04-16T16:05:23.201Z,12.27
2023-04-16T16:07:53.322Z,12.88
2023-04-16T16:10:23.026Z,13.45
2023-04-16T16:12:52.771Z,13.27
2023-04-16T16:15:22.563Z,11.98
2023-04-16T16:17:54.321Z,10.98
2023-04-16T16:20:27.180Z,10.60
2023-04-16T16:22:58.007Z,12.25
2023-04-16T16:25:30.639Z,11.95
2023-04-16T16:28:00.949Z,11.52
2023-04-16T16:30:33.704Z,12.75
2023-04-16T16:33:03.417Z,12.60
2023-04-16T16:35:33.885Z,12.15
2023-04-16T16:38:03.995Z,11.75
2023-04-16T16:40:33.842Z,12.60
2023-04-16T16:43:04.256Z,12.27
2023-04-16T16:45:34.283Z,12.93
2023-04-16T16:48:05.497Z,11.55
2023-04-16T16:50:35.316Z,11.55
2023-04-16T16:53:05.570Z,13.40
2023-04-16T16:55:36.662Z,12.27
2023-04-16T16:58:06.349Z,12.50
2023-04-16T17:00:36.226Z,13.63
2023-04-16T17:03:06.025Z,12.50
2023-04-16T17:05:35.804Z,13.23
2023-04-16T17:08:05.587Z,12.70
2023-04-16T17:10:37.992Z,11.75
2023-04-16T17:13:07.668Z,12.52
2023-04-16T17:15:37.272Z,12.82
2023-04-16T17:18:10.047Z,13.68
2023-04-16T17:20:40.005Z,11.95
2023-04-16T17:23:09.657Z,12.07
2023-04-16T17:25:39.371Z,11.80
2023-04-16T17:28:09.085Z,11.98
2023-04-16T17:30:41.315Z,13.48
2023-04-16T17:33:11.014Z,13.70
2023-04-16T17:35:42.527Z,13.75
2023-04-16T17:38:12.191Z,12.75
2023-04-16T17:40:41.965Z,12.13
2023-04-16T17:43:11.640Z,12.73
2023-04-16T17:45:41.370Z,12.15
2023-04-16T17:48:17.493Z,12.60
2023-04-16T17:50:51.430Z,13.10
2023-04-16T17:53:21.048Z,14.77
2023-04-16T17:55:59.594Z,12.98
2023-04-16T17:58:32.003Z,14.27
2023-04-16T18:01:01.967Z,13.50
2023-04-16T18:03:32.489Z,12.63
2023-04-16T18:06:02.721Z,13.35
2023-04-16T18:08:32.700Z,14.10
2023-04-16T18:11:12.532Z,13.45
2023-04-16T18:13:42.563Z,15.15
2023-04-16T18:16:21.161Z,13.93
2023-04-16T18:18:51.193Z,14.25
2023-04-16T18:21:20.802Z,14.68
2023-04-16T18:23:53.555Z,15.45
2023-04-16T18:26:23.336Z,15.10
2023-04-16T18:28:53.550Z,16.23
2023-04-16T18:31:23.617Z,14.10
2023-04-16T18:33:58.149Z,14.95
2023-04-16T18:36:29.070Z,14.95
2023-04-16T18:39:02.461Z,15.63
2023-04-16T18:41:33.091Z,10.50
2023-04-16T18:44:02.716Z,14.70
2023-04-16T18:46:32.449Z,16.08
2023-04-16T18:49:02.142Z,15.40
2023-04-16T18:51:31.886Z,14.43
2023-04-16T18:54:01.565Z,15.52
2023-04-16T18:56:33.938Z,15.07
2023-04-16T18:59:03.658Z,15.48
2023-04-16T19:01:33.365Z,14.70
2023-04-16T19:04:03.117Z,17.27
2023-04-16T19:06:33.776Z,13.52
2023-04-16T19:09:03.373Z,16.65
2023-04-16T19:11:36.024Z,13.93
2023-04-16T19:14:09.688Z,15.48
2023-04-16T19:16:40.746Z,10.98
2023-04-16T19:19:10.735Z,15.93
2023-04-16T19:21:43.197Z,16.08
2023-04-16T19:24:13.624Z,14.02
2023-04-16T19:26:43.299Z,15.68
2023-04-16T19:29:13.217Z,16.15
2023-04-16T19:31:43.024Z,16.63
2023-04-16T19:34:13.251Z,16.38
2023-04-16T19:36:43.189Z,14.60
2023-04-16T19:39:13.323Z,15.35
2023-04-16T19:41:43.046Z,16.60
2023-04-16T19:44:12.708Z,15.52
2023-04-16T19:46:46.271Z,14.98
2023-04-16T19:49:15.854Z,15.35
2023-04-16T19:51:45.675Z,14.05
2023-04-16T19:54:18.038Z,15.70
2023-04-16T19:56:57.901Z,15.85
2023-04-16T19:59:30.660Z,16.85
2023-04-16T20:02:00.686Z,17.90
2023-04-16T20:04:30.465Z,15.65
2023-04-16T20:07:00.311Z,16.10
2023-04-16T20:09:30.064Z,16.08
2023-04-16T20:11:59.794Z,14.80
2023-04-16T20:14:31.888Z,15.73
2023-04-16T20:17:01.690Z,15.00
2023-04-16T20:19:43.258Z,16.30
2023-04-16T20:22:13.510Z,15.52
2023-04-16T20:24:48.391Z,19.13
2023-04-16T20:27:20.915Z,18.05
2023-04-16T20:30:00.922Z,15.93
2023-04-16T20:32:30.841Z,14.68
2023-04-16T20:35:03.520Z,18.42
2023-04-16T20:37:33.946Z,18.30
2023-04-16T20:40:03.960Z,16.60
2023-04-16T20:42:34.251Z,19.02
2023-04-16T20:45:04.029Z,19.55
2023-04-16T20:47:36.088Z,19.50
2023-04-16T20:50:08.426Z,21.55
2023-04-16T20:52:40.929Z,19.33
2023-04-16T20:55:11.189Z,18.77
2023-04-16T20:57:40.831Z,12.82
2023-04-16T21:00:13.136Z,9.15
2023-04-16T21:02:43.171Z,8.85
2023-04-16T21:05:18.558Z,8.00
2023-04-16T21:07:51.952Z,7.63
2023-04-16T21:10:23.312Z,7.55
2023-04-16T21:12:53.110Z,6.63
2023-04-16T21:15:22.810Z,6.80
2023-04-16T21:17:52.425Z,6.30
2023-04-16T21:20:22.085Z,6.18
2023-04-16T21:22:52.672Z,5.95
2023-04-16T21:25:42.084Z,5.80
2023-04-16T21:28:12.082Z,5.50
2023-04-16T21:30:45.254Z,5.32
2023-04-16T21:33:16.298Z,5.60
2023-04-16T21:35:49.233Z,6.00
2023-04-16T21:38:18.872Z,5.80
2023-04-16T21:40:55.173Z,5.38
2023-04-16T21:43:33.923Z,5.43
2023-04-16T21:46:04.023Z,5.40
2023-04-16T21:48:38.932Z,5.53
2023-04-16T21:51:14.837Z,6.15
2023-04-16T21:53:44.683Z,4.80
2023-04-16T21:56:19.378Z,5.10
2023-04-16T22:01:20.932Z,5.47
2023-04-16T22:03:53.301Z,5.40
2023-04-16T22:06:24.835Z,5.30
2023-04-16T22:08:54.930Z,4.90
2023-04-16T22:11:27.612Z,5.57
2023-04-16T22:14:02.536Z,5.55
2023-04-16T22:16:32.568Z,6.18
2023-04-16T22:19:02.194Z,6.13
2023-04-16T22:21:33.302Z,4.53
2023-04-16T22:24:03.092Z,5.97
2023-04-16T22:26:33.060Z,6.10
2023-04-16T22:29:05.440Z,5.53
2023-04-16T22:31:44.100Z,5.85
2023-04-16T22:34:18.416Z,5.88
2023-04-16T22:37:09.532Z,4.93
2023-04-16T22:39:51.358Z,5.97
2023-04-16T22:42:21.098Z,5.78
2023-04-16T22:44:50.633Z,4.60
2023-04-16T22:47:50.930Z,5.45
2023-04-16T22:50:58.679Z,9.95
2023-04-16T22:54:20.226Z,7.47
2023-04-16T22:56:58.418Z,7.25
2023-04-16T22:59:31.563Z,7.18
2023-04-16T23:02:12.105Z,6.82
2023-04-16T23:04:41.873Z,6.13
2023-04-16T23:07:11.680Z,7.38
2023-04-16T23:09:41.526Z,6.78
2023-04-16T23:12:11.522Z,6.53
2023-04-16T23:14:41.154Z,6.72
2023-04-16T23:17:10.767Z,6.60
2023-04-16T23:19:49.485Z,6.75
2023-04-16T23:22:19.213Z,7.10
2023-04-16T23:24:51.553Z,6.15
2023-04-16T23:27:24.036Z,5.80
2023-04-16T23:29:56.366Z,6.40
2023-04-16T23:32:26.066Z,6.20
2023-04-16T23:34:56.017Z,7.03
2023-04-16T23:37:26.136Z,6.43
2023-04-16T23:39:56.054Z,6.60
2023-04-16T23:42:28.688Z,6.22
2023-04-16T23:45:01.468Z,6.65
2023-04-16T23:47:31.187Z,6.43
2023-04-16T23:50:00.858Z,6.47
2023-04-16T23:52:30.648Z,5.80
2023-04-16T23:55:01.587Z,5.88
2023-04-16T23:57:31.455Z,6.53
